createdAt,value
2018-05-08T00:00:14.457Z,100988.30
2018-05-08T00:02:41.866Z,101001.59
2018-05-08T00:05:09.303Z,100991.75
2018-05-08T00:07:36.693Z,100991.76
2018-05-08T00:10:04.095Z,100995.53
2018-05-08T00:12:31.521Z,100990.50
2018-05-08T00:14:58.965Z,100996.06
2018-05-08T00:17:26.376Z,100990.26
2018-05-08T00:19:53.873Z,100985.03
2018-05-08T00:22:21.284Z,100988.01
2018-05-08T00:24:48.756Z,100986.47
2018-05-08T00:27:16.179Z,100980.52
2018-05-08T00:29:43.567Z,100986.66
2018-05-08T00:32:11.015Z,100980.64
2018-05-08T00:34:38.462Z,100979.28
2018-05-08T00:37:05.841Z,100971.54
2018-05-08T00:39:33.240Z,100973.77
2018-05-08T00:42:00.652Z,100971.40
2018-05-08T00:44:28.045Z,100972.97
2018-05-08T00:46:55.526Z,100972.14
2018-05-08T00:49:22.921Z,100970.62
2018-05-08T00:51:50.325Z,100963.62
2018-05-08T00:54:18.286Z,100966.36
2018-05-08T00:56:45.672Z,100972.42
2018-05-08T00:59:13.117Z,100968.30
2018-05-08T01:01:40.573Z,100970.45
2018-05-08T01:04:07.957Z,100964.53
2018-05-08T01:06:35.355Z,100967.33
2018-05-08T01:09:02.798Z,100969.27
2018-05-08T01:11:30.301Z,100968.42
2018-05-08T01:13:57.713Z,100967.23
2018-05-08T01:16:25.117Z,100959.91
2018-05-08T01:18:52.524Z,100955.84
2018-05-08T01:21:19.929Z,100962.27
2018-05-08T01:23:47.317Z,100964.46
2018-05-08T01:26:14.801Z,100954.47
2018-05-08T01:28:42.254Z,100947.82
2018-05-08T01:31:09.637Z,100955.44
2018-05-08T01:33:37.052Z,100954.47
2018-05-08T01:36:04.513Z,100955.53
2018-05-08T01:38:31.905Z,100960.75
2018-05-08T01:40:59.329Z,100953.14
2018-05-08T01:43:26.750Z,100956.12
2018-05-08T01:45:54.157Z,100946.45
2018-05-08T01:48:21.562Z,100948.78
2018-05-08T01:50:49.069Z,100944.05
2018-05-08T01:53:16.472Z,100944.47
2018-05-08T01:55:43.869Z,100946.44
2018-05-08T01:58:11.338Z,100951.89
2018-05-08T02:00:38.856Z,100943.91
2018-05-08T02:03:06.334Z,100943.34
2018-05-08T02:05:33.792Z,100943.95
2018-05-08T02:08:01.185Z,100944.97
2018-05-08T02:10:28.581Z,100941.84
2018-05-08T02:12:56.069Z,100949.72
2018-05-08T02:15:23.529Z,100940.24
2018-05-08T02:17:50.995Z,100943.93
2018-05-08T02:20:18.455Z,100937.77
2018-05-08T02:22:48.209Z,100936.09
2018-05-08T02:25:15.661Z,100935.16
2018-05-08T02:27:43.062Z,100933.44
2018-05-08T02:30:10.466Z,100931.80
2018-05-08T02:32:37.866Z,100928.72
2018-05-08T02:35:05.256Z,100927.55
2018-05-08T02:37:32.654Z,100922.31
2018-05-08T02:40:00.897Z,100919.50
2018-05-08T02:42:28.357Z,100917.30
2018-05-08T02:44:55.757Z,100915.39
2018-05-08T02:47:23.166Z,100908.84
2018-05-08T02:49:50.648Z,100903.69
2018-05-08T02:52:18.061Z,100901.39
2018-05-08T02:54:45.565Z,100905.26
2018-05-08T02:57:13.002Z,100907.25
2018-05-08T02:59:40.393Z,100906.79
2018-05-08T03:02:07.817Z,100906.92
2018-05-08T03:04:36.170Z,100911.75
2018-05-08T03:07:03.598Z,100911.27
2018-05-08T03:09:31.070Z,100911.50
2018-05-08T03:11:58.522Z,100916.98
2018-05-08T03:14:25.923Z,100911.32
2018-05-08T03:16:53.422Z,100914.60
2018-05-08T03:19:20.841Z,100915.27
2018-05-08T03:21:48.250Z,100912.43
2018-05-08T03:24:15.637Z,100909.77
2018-05-08T03:26:43.024Z,100910.46
2018-05-08T03:29:10.506Z,100920.80
2018-05-08T03:31:37.889Z,100918.63
2018-05-08T03:34:05.301Z,100921.89
2018-05-08T03:36:32.786Z,100919.98
2018-05-08T03:41:38.351Z,100913.56
2018-05-08T03:44:05.749Z,100915.47
2018-05-08T03:46:33.154Z,100917.73
2018-05-08T03:49:00.610Z,100911.27
2018-05-08T03:51:28.003Z,100918.06
2018-05-08T03:53:55.431Z,100915.61
2018-05-08T03:56:22.832Z,100912.49
2018-05-08T03:58:50.222Z,100910.78
2018-05-08T04:01:29.650Z,100909.13
2018-05-08T04:04:08.853Z,100906.63
2018-05-08T04:07:01.833Z,100911.23
2018-05-08T04:09:29.242Z,100905.33
2018-05-08T04:11:56.653Z,100900.19
2018-05-08T04:14:26.968Z,100900.06
2018-05-08T04:16:54.415Z,100897.14
2018-05-08T04:19:21.801Z,100894.42
2018-05-08T04:21:49.190Z,100897.52
2018-05-08T04:24:16.589Z,100889.18
2018-05-08T04:26:43.984Z,100887.40
2018-05-08T04:29:11.473Z,100886.36
2018-05-08T04:31:38.937Z,100887.91
2018-05-08T04:34:06.328Z,100883.19
2018-05-08T04:36:33.797Z,100886.30
2018-05-08T04:39:01.117Z,100881.50
2018-05-08T04:41:28.497Z,100878.39
2018-05-08T04:43:55.911Z,100879.15
2018-05-08T04:46:23.285Z,100877.11
2018-05-08T04:48:50.739Z,100873.55
2018-05-08T04:51:18.127Z,100877.73
2018-05-08T04:53:45.662Z,100872.81
2018-05-08T04:56:13.037Z,100869.34
2018-05-08T04:58:40.425Z,100869.04
2018-05-08T05:01:07.922Z,100867.44
2018-05-08T05:03:35.317Z,100869.62
2018-05-08T05:06:02.710Z,100868.41
2018-05-08T05:08:30.110Z,100871.55
2018-05-08T05:10:57.575Z,100869.02
2018-05-08T05:13:24.894Z,100864.27
2018-05-08T05:15:52.277Z,100868.41
2018-05-08T05:18:19.709Z,100861.61
2018-05-08T05:20:47.167Z,100859.42
2018-05-08T05:23:14.568Z,100861.98
2018-05-08T05:25:41.961Z,100858.50
2018-05-08T05:28:09.430Z,100869.01
2018-05-08T05:30:37.005Z,100860.59
2018-05-08T05:33:04.388Z,100861.30
2018-05-08T05:35:31.788Z,100863.09
2018-05-08T05:37:59.209Z,100860.63
2018-05-08T05:40:26.604Z,100861.57
2018-05-08T05:42:54.002Z,100864.61
2018-05-08T05:45:21.405Z,100862.31
2018-05-08T05:47:48.798Z,100857.56
2018-05-08T05:50:16.197Z,100862.81
2018-05-08T05:52:43.585Z,100856.38
2018-05-08T05:55:11.057Z,100857.00
2018-05-08T05:57:38.517Z,100849.52
2018-05-08T06:00:06.024Z,100850.97
2018-05-08T06:02:33.356Z,100852.29
2018-05-08T06:05:00.751Z,100840.34
2018-05-08T06:07:28.147Z,100850.25
2018-05-08T06:09:55.542Z,100845.38
2018-05-08T06:12:23.037Z,100837.95
2018-05-08T06:14:50.441Z,100837.12
2018-05-08T06:17:17.863Z,100833.23
2018-05-08T06:19:45.252Z,100838.05
2018-05-08T06:22:12.640Z,100836.73
2018-05-08T06:24:40.117Z,100823.73
2018-05-08T06:27:07.500Z,100832.36
2018-05-08T06:29:34.904Z,100827.34
2018-05-08T06:32:02.404Z,100833.17
2018-05-08T06:34:29.865Z,100842.14
2018-05-08T06:36:57.327Z,100834.50
2018-05-08T06:39:24.771Z,100832.60
2018-05-08T06:41:52.131Z,100833.98
2018-05-08T06:44:19.652Z,100832.29
2018-05-08T06:46:47.031Z,100829.00
2018-05-08T06:49:14.394Z,100832.52
2018-05-08T06:51:41.777Z,100830.98
2018-05-08T06:54:09.174Z,100825.66
2018-05-08T06:56:36.574Z,100819.34
2018-05-08T06:59:03.960Z,100819.59
2018-05-08T07:01:31.357Z,100817.70
2018-05-08T07:03:58.758Z,100814.73
2018-05-08T07:06:26.173Z,100815.23
2018-05-08T07:08:53.558Z,100818.10
2018-05-08T07:11:20.995Z,100809.42
2018-05-08T07:13:48.460Z,100816.89
2018-05-08T07:16:15.983Z,100808.44
2018-05-08T07:18:43.366Z,100811.14
2018-05-08T07:21:10.753Z,100811.62
2018-05-08T07:23:38.150Z,100811.95
2018-05-08T07:26:05.545Z,100811.98
2018-05-08T07:28:32.933Z,100805.59
2018-05-08T07:31:00.359Z,100801.73
2018-05-08T07:33:27.741Z,100801.92
2018-05-08T07:35:55.141Z,100800.45
2018-05-08T07:38:22.639Z,100804.25
2018-05-08T07:40:49.941Z,100800.67
2018-05-08T07:43:17.421Z,100798.19
2018-05-08T07:45:44.908Z,100804.17
2018-05-08T07:48:12.342Z,100795.42
2018-05-08T07:50:39.795Z,100790.94
2018-05-08T07:53:07.134Z,100793.98
2018-05-08T07:55:34.569Z,100799.23
2018-05-08T07:58:01.972Z,100796.83
2018-05-08T08:00:29.596Z,100800.55
2018-05-08T08:02:56.987Z,100799.09
2018-05-08T08:05:24.377Z,100792.45
2018-05-08T08:07:51.773Z,100794.13
2018-05-08T08:10:19.177Z,100804.45
2018-05-08T08:12:46.565Z,100794.77
2018-05-08T08:15:13.962Z,100789.63
2018-05-08T08:17:41.439Z,100795.06
2018-05-08T08:20:08.881Z,100789.63
2018-05-08T08:22:36.339Z,100796.45
2018-05-08T08:25:03.741Z,100789.78
2018-05-08T08:27:31.135Z,100785.40
2018-05-08T08:29:58.536Z,100786.69
2018-05-08T08:32:25.956Z,100784.88
2018-05-08T08:34:53.414Z,100776.91
2018-05-08T08:37:21.457Z,100781.56
2018-05-08T08:39:48.853Z,100771.88
2018-05-08T08:42:16.297Z,100776.05
2018-05-08T08:44:43.699Z,100776.34
2018-05-08T08:47:11.101Z,100766.85
2018-05-08T08:49:38.517Z,100772.56
2018-05-08T08:52:05.904Z,100771.53
2018-05-08T08:54:33.307Z,100764.55
2018-05-08T08:57:00.705Z,100767.59
2018-05-08T08:59:28.102Z,100756.17
2018-05-08T09:01:55.505Z,100759.83
2018-05-08T09:04:22.897Z,100765.16
2018-05-08T09:06:50.294Z,100757.23
2018-05-08T09:09:17.681Z,100760.53
2018-05-08T09:11:45.077Z,100752.64
2018-05-08T09:14:12.470Z,100750.65
2018-05-08T09:16:39.881Z,100748.76
2018-05-08T09:19:07.361Z,100745.71
2018-05-08T09:21:34.761Z,100736.06
2018-05-08T09:24:02.173Z,100739.50
2018-05-08T09:26:29.642Z,100737.05
2018-05-08T09:28:57.078Z,100733.41
2018-05-08T09:31:24.472Z,100733.80
2018-05-08T09:33:51.908Z,100725.66
2018-05-08T09:36:19.338Z,100731.17
2018-05-08T09:38:46.797Z,100723.46
2018-05-08T09:41:14.217Z,100719.05
2018-05-08T09:43:41.725Z,100718.64
2018-05-08T09:46:09.126Z,100714.49
2018-05-08T09:48:36.517Z,100715.13
2018-05-08T09:51:03.926Z,100714.95
2018-05-08T09:53:31.312Z,100711.25
2018-05-08T09:55:58.720Z,100704.77
2018-05-08T09:58:26.149Z,100701.21
2018-05-08T10:00:53.607Z,100695.67
2018-05-08T10:03:20.949Z,100702.36
2018-05-08T10:05:48.358Z,100694.00
2018-05-08T10:08:15.773Z,100694.91
2018-05-08T10:10:43.174Z,100693.10
2018-05-08T10:13:10.560Z,100684.61
2018-05-08T10:15:38.041Z,100678.44
2018-05-08T10:18:05.459Z,100672.48
2018-05-08T10:20:32.886Z,100669.08
2018-05-08T10:23:00.277Z,100668.08
2018-05-08T10:25:27.689Z,100656.70
2018-05-08T10:27:55.182Z,100662.52
2018-05-08T10:30:22.585Z,100663.14
2018-05-08T10:32:50.047Z,100664.45
2018-05-08T10:35:17.513Z,100652.38
2018-05-08T10:37:44.915Z,100643.94
2018-05-08T10:40:12.316Z,100650.81
2018-05-08T10:42:39.711Z,100648.91
2018-05-08T10:45:07.130Z,100647.25
2018-05-08T10:47:34.522Z,100642.36
2018-05-08T10:50:01.906Z,100637.46
2018-05-08T10:52:29.313Z,100637.46
2018-05-08T10:54:56.813Z,100633.84
2018-05-08T10:57:24.207Z,100639.38
2018-05-08T10:59:51.596Z,100633.81
2018-05-08T11:02:19.073Z,100631.34
2018-05-08T11:04:46.534Z,100631.62
2018-05-08T11:07:13.929Z,100625.27
2018-05-08T11:09:41.438Z,100624.31
2018-05-08T11:12:08.905Z,100613.70
2018-05-08T11:14:36.310Z,100632.09
2018-05-08T11:17:03.717Z,100611.42
2018-05-08T11:19:31.177Z,100620.20
2018-05-08T11:21:58.633Z,100609.32
2018-05-08T11:24:26.021Z,100600.09
2018-05-08T11:26:53.514Z,100610.19
2018-05-08T11:29:20.923Z,100602.02
2018-05-08T11:31:48.321Z,100599.53
2018-05-08T11:34:15.713Z,100588.84
2018-05-08T11:36:43.109Z,100583.48
2018-05-08T11:39:10.500Z,100582.87
2018-05-08T11:41:37.986Z,100577.42
2018-05-08T11:44:05.450Z,100570.69
2018-05-08T11:46:32.894Z,100573.02
2018-05-08T11:49:00.363Z,100569.06
2018-05-08T11:51:27.832Z,100563.14
2018-05-08T11:53:55.211Z,100557.34
2018-05-08T11:56:22.649Z,100553.16
2018-05-08T11:58:50.089Z,100554.25
2018-05-08T12:01:17.493Z,100558.20
2018-05-08T12:03:44.909Z,100555.50
2018-05-08T12:06:12.305Z,100536.81
2018-05-08T12:08:39.817Z,100539.11
2018-05-08T12:11:07.213Z,100531.70
2018-05-08T12:13:34.605Z,100529.81
2018-05-08T12:16:01.998Z,100529.83
2018-05-08T12:18:29.462Z,100537.78
2018-05-08T12:20:56.862Z,100531.70
2018-05-08T12:23:24.255Z,100526.25
2018-05-08T12:25:51.645Z,100530.14
2018-05-08T12:28:19.029Z,100526.38
2018-05-08T12:30:46.630Z,100518.02
2018-05-08T12:33:13.926Z,100521.38
2018-05-08T12:35:41.321Z,100518.66
2018-05-08T12:38:08.815Z,100511.25
2018-05-08T12:40:36.282Z,100500.56
2018-05-08T12:43:03.668Z,100503.09
2018-05-08T12:45:31.061Z,100514.14
2018-05-08T12:47:58.458Z,100499.78
2018-05-08T12:50:25.934Z,100499.67
2018-05-08T12:52:53.262Z,100495.98
2018-05-08T12:55:20.653Z,100497.16
2018-05-08T12:57:48.157Z,100495.13
2018-05-08T13:00:15.635Z,100489.69
2018-05-08T13:02:43.025Z,100485.04
2018-05-08T13:05:10.424Z,100490.31
2018-05-08T13:07:37.829Z,100483.73
2018-05-08T13:10:05.222Z,100476.87
2018-05-08T13:12:32.619Z,100472.65
2018-05-08T13:15:00.001Z,100473.62
2018-05-08T13:17:27.429Z,100476.89
2018-05-08T13:19:54.890Z,100472.98
2018-05-08T13:22:22.329Z,100464.95
2018-05-08T13:24:49.718Z,100464.09
2018-05-08T13:27:17.146Z,100466.41
2018-05-08T13:29:44.601Z,100441.44
2018-05-08T13:32:12.057Z,100455.75
2018-05-08T13:34:39.445Z,100458.58
2018-05-08T13:37:06.958Z,100458.19
2018-05-08T13:39:34.444Z,100465.13
2018-05-08T13:42:01.918Z,100460.30
2018-05-08T13:44:29.298Z,100451.37
2018-05-08T13:46:56.693Z,100463.98
2018-05-08T13:49:24.090Z,100444.14
2018-05-08T13:51:51.511Z,100443.98
2018-05-08T13:54:18.977Z,100441.68
2018-05-08T13:56:46.438Z,100427.25
2018-05-08T13:59:13.889Z,100438.20
2018-05-08T14:01:41.370Z,100435.39
2018-05-08T14:04:08.752Z,100429.83
2018-05-08T14:06:36.181Z,100428.66
2018-05-08T14:09:03.555Z,100418.78
2018-05-08T14:11:30.991Z,100419.90
2018-05-08T14:13:58.429Z,100423.91
2018-05-08T14:16:25.925Z,100413.52
2018-05-08T14:18:53.330Z,100415.16
2018-05-08T14:21:20.816Z,100412.48
2018-05-08T14:23:48.209Z,100407.21
2018-05-08T14:26:15.602Z,100411.08
2018-05-08T14:28:43.012Z,100411.58
2018-05-08T14:31:10.457Z,100392.80
2018-05-08T14:33:37.849Z,100396.35
2018-05-08T14:36:05.291Z,100393.50
2018-05-08T14:38:32.667Z,100388.25
2018-05-08T14:41:00.049Z,100382.75
2018-05-08T14:43:27.544Z,100381.45
2018-05-08T14:45:54.986Z,100382.86
2018-05-08T14:48:22.386Z,100376.95
2018-05-08T14:50:49.797Z,100374.71
2018-05-08T14:53:17.198Z,100374.10
2018-05-08T14:55:44.610Z,100378.78
2018-05-08T14:58:12.016Z,100372.53
2018-05-08T15:00:39.405Z,100373.53
2018-05-08T15:03:06.873Z,100366.98
2018-05-08T15:05:34.345Z,100363.81
2018-05-08T15:08:01.799Z,100366.37
2018-05-08T15:10:29.189Z,100364.59
2018-05-08T15:12:56.586Z,100368.16
2018-05-08T15:15:23.968Z,100353.83
2018-05-08T15:17:51.372Z,100352.63
2018-05-08T15:20:18.776Z,100356.56
2018-05-08T15:22:46.233Z,100352.16
2018-05-08T15:25:13.692Z,100344.27
2018-05-08T15:27:41.085Z,100349.29
2018-05-08T15:30:08.470Z,100333.23
2018-05-08T15:32:35.969Z,100334.09
2018-05-08T15:35:03.421Z,100333.84
2018-05-08T15:37:30.818Z,100339.48
2018-05-08T15:39:58.231Z,100341.19
2018-05-08T15:42:25.690Z,100332.88
2018-05-08T15:44:53.080Z,100329.74
2018-05-08T15:49:43.065Z,100329.21
2018-05-08T15:52:10.464Z,100335.44
2018-05-08T15:54:37.960Z,100334.60
2018-05-08T15:57:05.409Z,100321.91
2018-05-08T15:59:32.878Z,100324.20
2018-05-08T16:02:00.281Z,100322.33
2018-05-08T16:04:27.676Z,100326.05
2018-05-08T16:06:55.064Z,100320.95
2018-05-08T16:09:22.465Z,100317.23
2018-05-08T16:11:49.858Z,100316.25
2018-05-08T16:14:17.330Z,100323.37
2018-05-08T16:16:44.717Z,100319.38
2018-05-08T16:19:12.121Z,100314.13
2018-05-08T16:21:39.595Z,100312.18
2018-05-08T16:24:07.038Z,100312.97
2018-05-08T16:26:34.507Z,100311.11
2018-05-08T16:29:01.898Z,100304.20
2018-05-08T16:31:29.319Z,100303.19
2018-05-08T16:33:56.760Z,100303.67
2018-05-08T16:36:24.146Z,100292.91
2018-05-08T16:38:51.597Z,100301.81
2018-05-08T16:41:18.974Z,100302.08
2018-05-08T16:43:46.385Z,100306.03
2018-05-08T16:46:13.825Z,100297.17
2018-05-08T16:48:41.301Z,100296.91
2018-05-08T16:51:08.793Z,100295.98
2018-05-08T16:53:36.186Z,100296.98
2018-05-08T16:56:03.587Z,100295.62
2018-05-08T16:58:31.006Z,100287.38
2018-05-08T17:00:58.394Z,100292.73
2018-05-08T17:03:25.837Z,100287.64
2018-05-08T17:05:53.305Z,100302.05
2018-05-08T17:08:20.730Z,100293.48
2018-05-08T17:10:48.141Z,100303.50
2018-05-08T17:13:15.547Z,100295.64
2018-05-08T17:15:43.044Z,100298.55
2018-05-08T17:18:10.433Z,100294.94
2018-05-08T17:20:37.867Z,100293.58
2018-05-08T17:23:05.278Z,100287.42
2018-05-08T17:25:32.694Z,100290.24
2018-05-08T17:28:00.087Z,100288.37
2018-05-08T17:30:27.474Z,100289.16
2018-05-08T17:32:54.883Z,100285.67
2018-05-08T17:35:22.286Z,100286.59
2018-05-08T17:37:49.729Z,100285.84
2018-05-08T17:40:17.137Z,100288.13
2018-05-08T17:42:44.554Z,100284.37
2018-05-08T17:45:12.019Z,100284.08
2018-05-08T17:47:39.413Z,100277.08
2018-05-08T17:50:06.849Z,100287.20
2018-05-08T17:52:34.258Z,100284.27
2018-05-08T17:55:01.647Z,100276.34
2018-05-08T17:57:29.056Z,100277.39
2018-05-08T17:59:56.469Z,100276.98
2018-05-08T18:02:23.953Z,100280.52
2018-05-08T18:04:51.370Z,100282.05
2018-05-08T18:07:18.770Z,100282.09
2018-05-08T18:09:46.173Z,100278.38
2018-05-08T18:12:13.559Z,100282.70
2018-05-08T18:14:41.001Z,100284.88
2018-05-08T18:17:08.468Z,100281.64
2018-05-08T18:19:35.950Z,100275.03
2018-05-08T18:22:03.401Z,100283.67
2018-05-08T18:24:30.784Z,100278.09
2018-05-08T18:26:58.190Z,100282.56
2018-05-08T18:29:25.585Z,100285.30
2018-05-08T18:31:52.993Z,100275.28
2018-05-08T18:34:20.527Z,100276.34
2018-05-08T18:36:47.785Z,100275.88
2018-05-08T18:39:15.193Z,100276.22
2018-05-08T18:41:42.630Z,100275.02
2018-05-08T18:44:10.041Z,100279.30
2018-05-08T18:46:37.615Z,100282.48
2018-05-08T18:49:05.095Z,100282.65
2018-05-08T18:51:32.483Z,100277.77
2018-05-08T18:53:59.882Z,100282.84
2018-05-08T18:56:27.274Z,100284.06
2018-05-08T18:58:54.738Z,100286.80
2018-05-08T19:01:22.226Z,100284.97
2018-05-08T19:03:49.686Z,100280.03
2018-05-08T19:06:17.150Z,100283.82
2018-05-08T19:08:44.647Z,100288.72
2018-05-08T19:11:17.685Z,100286.77
2018-05-08T19:13:45.096Z,100286.64
2018-05-08T19:16:12.486Z,100294.44
2018-05-08T19:18:45.421Z,100291.26
2018-05-08T19:21:12.814Z,100293.27
2018-05-08T19:23:45.997Z,100297.85
2018-05-08T19:26:13.398Z,100300.55
2018-05-08T19:28:46.577Z,100296.09
2018-05-08T19:31:13.962Z,100298.39
2018-05-08T19:33:41.390Z,100306.28
2018-05-08T19:36:14.553Z,100298.39
2018-05-08T19:38:41.967Z,100300.95
2018-05-08T19:41:09.369Z,100300.91
2018-05-08T19:43:36.770Z,100296.39
2018-05-08T19:46:04.161Z,100297.08
2018-05-08T19:48:31.556Z,100294.44
2018-05-08T19:50:58.953Z,100296.53
2018-05-08T19:53:26.437Z,100302.61
2018-05-08T19:55:53.962Z,100301.49
2018-05-08T19:58:21.442Z,100302.84
2018-05-08T20:00:48.829Z,100299.90
2018-05-08T20:03:16.273Z,100300.80
2018-05-08T20:05:43.664Z,100301.56
2018-05-08T20:08:11.065Z,100299.87
2018-05-08T20:10:38.462Z,100294.20
2018-05-08T20:13:05.857Z,100299.78
2018-05-08T20:15:33.360Z,100300.05
2018-05-08T20:18:00.853Z,100299.13
2018-05-08T20:20:28.365Z,100301.92
2018-05-08T20:22:55.775Z,100298.72
2018-05-08T20:25:23.197Z,100296.47
2018-05-08T20:27:50.597Z,100295.57
2018-05-08T20:30:18.039Z,100297.22
2018-05-08T20:32:45.492Z,100294.88
2018-05-08T20:35:12.909Z,100291.14
2018-05-08T20:37:40.313Z,100296.32
2018-05-08T20:40:07.717Z,100294.05
2018-05-08T20:42:35.193Z,100292.23
2018-05-08T20:45:02.638Z,100299.90
2018-05-08T20:47:30.033Z,100306.28
2018-05-08T20:49:57.458Z,100297.75
2018-05-08T20:52:24.910Z,100291.95
2018-05-08T20:54:52.307Z,100296.39
2018-05-08T20:57:19.700Z,100288.52
2018-05-08T20:59:47.093Z,100294.33
2018-05-08T21:02:14.494Z,100292.03
2018-05-08T21:04:41.904Z,100291.69
2018-05-08T21:07:09.298Z,100292.46
2018-05-08T21:09:36.689Z,100292.53
2018-05-08T21:12:04.089Z,100298.51
2018-05-08T21:14:31.483Z,100293.72
2018-05-08T21:16:58.865Z,100291.37
2018-05-08T21:19:26.270Z,100296.31
2018-05-08T21:21:53.654Z,100292.62
2018-05-08T21:24:22.023Z,100287.42
2018-05-08T21:29:29.020Z,100299.23
2018-05-08T21:31:56.424Z,100293.89
2018-05-08T21:34:23.850Z,100298.23
2018-05-08T21:36:51.232Z,100303.26
2018-05-08T21:39:18.653Z,100299.00
2018-05-08T21:41:46.060Z,100302.67
2018-05-08T21:44:13.462Z,100303.23
2018-05-08T21:46:40.844Z,100299.89
2018-05-08T21:49:08.301Z,100297.87
2018-05-08T21:51:35.767Z,100297.94
2018-05-08T21:54:03.152Z,100296.10
2018-05-08T21:56:30.562Z,100289.72
2018-05-08T21:58:57.964Z,100294.17
2018-05-08T22:01:25.358Z,100292.48
2018-05-08T22:03:52.776Z,100293.42
2018-05-08T22:06:20.189Z,100294.01
2018-05-08T22:08:47.593Z,100292.90
2018-05-08T22:11:14.984Z,100291.63
2018-05-08T22:13:42.374Z,100292.21
2018-05-08T22:16:09.761Z,100296.59
2018-05-08T22:18:37.165Z,100293.13
2018-05-08T22:21:04.561Z,100301.11
2018-05-08T22:23:31.961Z,100294.41
2018-05-08T22:25:59.454Z,100295.26
2018-05-08T22:28:26.855Z,100292.97
2018-05-08T22:30:54.255Z,100284.63
2018-05-08T22:33:21.705Z,100280.48
2018-05-08T22:35:49.098Z,100287.86
2018-05-08T22:38:16.505Z,100287.80
2018-05-08T22:40:43.946Z,100282.92
2018-05-08T22:43:11.355Z,100284.45
2018-05-08T22:45:38.877Z,100281.27
2018-05-08T22:48:06.269Z,100279.51
2018-05-08T22:50:33.673Z,100274.66
2018-05-08T22:53:01.061Z,100274.48
2018-05-08T22:55:28.462Z,100269.53
2018-05-08T22:57:55.956Z,100272.80
2018-05-08T23:00:23.392Z,100266.27
2018-05-08T23:02:50.857Z,100271.34
2018-05-08T23:05:18.308Z,100267.32
2018-05-08T23:07:45.761Z,100268.75
2018-05-08T23:10:13.169Z,100263.39
2018-05-08T23:12:40.556Z,100261.47
2018-05-08T23:15:07.951Z,100252.27
2018-05-08T23:17:35.399Z,100257.81
2018-05-08T23:20:02.899Z,100260.98
2018-05-08T23:22:30.307Z,100255.27
2018-05-08T23:24:57.702Z,100249.02
2018-05-08T23:27:25.166Z,100253.44
2018-05-08T23:29:52.625Z,100259.22
2018-05-08T23:32:20.076Z,100250.59
2018-05-08T23:34:47.476Z,100246.46
2018-05-08T23:37:14.874Z,100246.13
2018-05-08T23:39:42.261Z,100243.09
2018-05-08T23:42:09.649Z,100244.61
2018-05-08T23:44:37.156Z,100248.79
2018-05-08T23:47:04.628Z,100244.99
2018-05-08T23:49:32.033Z,100249.78
2018-05-08T23:51:59.429Z,100242.94
2018-05-08T23:54:26.821Z,100243.17
2018-05-08T23:56:54.207Z,100241.79
2018-05-08T23:59:21.616Z,100241.05
